Time;durP1;ratioP1;P1;durP2;ratioP2;P2;SDS_P1;SDS_P2;PMS_P1;PMS_P2;Temp;Humidity;BMP_temperature;BMP_pressure;BME280_temperature;BME280_humidity;BME280_pressure;Samples;Min_cycle;Max_cycle;Signal;HPM_P1;HPM_P2
2023/05/06 00:02:08;;;;;;;1.27;0.70;;;12.50;99.90;;;;;;5058438;28;20024;-73
2023/05/06 00:04:33;;;;;;;2.03;0.85;;;12.40;99.90;;;;;;5076248;28;20430;-72
2023/05/06 00:06:59;;;;;;;1.90;0.80;;;12.30;99.90;;;;;;5076093;28;20439;-72
2023/05/06 00:09:24;;;;;;;2.08;0.73;;;12.20;99.90;;;;;;5074884;28;20052;-72
2023/05/06 00:11:50;;;;;;;1.65;0.75;;;12.20;99.90;;;;;;5076163;28;20419;-73
2023/05/06 00:14:16;;;;;;;1.52;0.70;;;12.10;99.90;;;;;;5076064;28;20051;-72
2023/05/06 00:16:41;;;;;;;1.65;0.82;;;12.00;99.90;;;;;;5075986;28;20021;-72
2023/05/06 00:19:07;;;;;;;1.95;0.82;;;12.00;99.90;;;;;;5075926;28;20082;-72
2023/05/06 00:21:33;;;;;;;1.98;0.70;;;12.00;99.90;;;;;;5075653;28;20025;-72
2023/05/06 00:23:58;;;;;;;3.60;1.00;;;12.00;99.90;;;;;;5075856;28;20099;-72
2023/05/06 00:26:24;;;;;;;1.15;0.70;;;12.00;99.90;;;;;;5075659;28;20472;-72
2023/05/06 00:28:50;;;;;;;2.63;0.80;;;12.00;99.90;;;;;;5075262;28;20086;-73
2023/05/06 00:31:15;;;;;;;1.40;0.77;;;12.00;99.90;;;;;;5074932;28;20027;-73
2023/05/06 00:33:41;;;;;;;2.35;1.10;;;12.00;99.90;;;;;;5075723;28;20029;-72
2023/05/06 00:36:07;;;;;;;2.22;0.90;;;11.90;99.90;;;;;;5075962;28;20031;-73
2023/05/06 00:38:33;;;;;;;1.67;0.90;;;11.90;99.90;;;;;;5074158;28;20117;-72
2023/05/06 00:40:58;;;;;;;1.65;0.90;;;11.90;99.90;;;;;;5075041;28;20032;-72
2023/05/06 00:43:24;;;;;;;2.33;0.80;;;11.90;99.90;;;;;;5074458;28;20036;-72
2023/05/06 00:45:50;;;;;;;2.33;1.05;;;11.90;99.90;;;;;;5076022;28;20077;-72
2023/05/06 00:48:16;;;;;;;1.40;0.80;;;12.00;99.90;;;;;;5075198;28;20078;-71
2023/05/06 00:50:43;;;;;;;1.83;0.90;;;12.00;99.90;;;;;;5075577;28;20055;-71
2023/05/06 00:53:12;;;;;;;2.08;0.70;;;11.90;99.90;;;;;;5074883;28;20040;-71
2023/05/06 00:55:38;;;;;;;2.22;0.95;;;11.90;99.90;;;;;;5075352;28;20017;-72
2023/05/06 00:58:04;;;;;;;1.98;0.90;;;11.80;99.90;;;;;;5075594;28;20388;-72
2023/05/06 01:00:31;;;;;;;1.42;1.00;;;11.70;99.90;;;;;;5075234;28;20472;-72
2023/05/06 01:02:56;;;;;;;2.72;1.13;;;11.70;99.90;;;;;;5074980;28;20078;-72
2023/05/06 01:05:28;;;;;;;2.30;0.90;;;11.70;99.90;;;;;;5075483;28;20032;-72
2023/05/06 01:08:08;;;;;;;2.97;0.90;;;11.70;99.90;;;;;;5074851;28;20391;-72
2023/05/06 01:10:39;;;;;;;2.13;0.98;;;11.60;99.90;;;;;;5075061;28;20365;-72
2023/05/06 01:13:20;;;;;;;;;;;11.60;99.90;;;;;;5074011;28;20052;-72
2023/05/06 01:15:51;;;;;;;2.63;0.80;;;11.60;99.90;;;;;;5074985;28;19908;-72
2023/05/06 01:18:18;;;;;;;;;;;11.60;99.90;;;;;;5074061;28;20267;-72
2023/05/06 01:20:48;;;;;;;1.38;0.80;;;11.60;99.90;;;;;;5075050;28;19995;-71
2023/05/06 01:23:14;;;;;;;1.77;1.02;;;11.60;99.90;;;;;;5075009;28;20035;-71
2023/05/06 01:25:40;;;;;;;1.70;1.00;;;11.60;99.90;;;;;;5074718;28;20028;-71
2023/05/06 01:28:09;;;;;;;1.80;1.02;;;11.50;99.90;;;;;;5074548;28;20040;-72
2023/05/06 01:31:02;;;;;;;3.90;1.30;;;11.50;99.90;;;;;;5074591;28;20074;-72
2023/05/06 01:33:41;;;;;;;2.13;1.20;;;11.50;99.90;;;;;;5068019;28;20041;-72
2023/05/06 01:36:45;;;;;;;3.20;1.30;;;11.40;99.90;;;;;;5074857;28;20095;-72
2023/05/06 01:39:23;;;;;;;1.60;0.90;;;11.40;99.90;;;;;;5073454;28;20058;-72
2023/05/06 01:41:50;;;;;;;1.75;1.08;;;11.40;99.90;;;;;;5074380;28;20081;-72
2023/05/06 01:44:20;;;;;;;1.50;0.90;;;11.40;99.90;;;;;;5074232;28;20028;-71
2023/05/06 01:46:48;;;;;;;1.58;1.08;;;11.40;99.90;;;;;;5074224;28;20097;-72
2023/05/06 01:49:16;;;;;;;1.40;1.02;;;11.50;99.90;;;;;;5074498;28;20043;-72
2023/05/06 01:51:51;;;;;;;1.88;0.90;;;11.50;99.90;;;;;;5074060;28;20476;-71
2023/05/06 01:54:17;;;;;;;1.38;0.98;;;11.50;99.90;;;;;;5074161;28;20032;-71
2023/05/06 01:56:44;;;;;;;2.70;0.80;;;11.50;99.90;;;;;;5074059;28;20024;-72
2023/05/06 01:59:09;;;;;;;1.88;0.80;;;11.40;99.90;;;;;;5074629;28;20051;-72
2023/05/06 02:01:35;;;;;;;1.30;0.80;;;11.30;99.90;;;;;;5074132;28;20516;-72
2023/05/06 02:04:00;;;;;;;1.65;1.02;;;11.30;99.90;;;;;;5073867;28;20024;-72
2023/05/06 02:06:26;;;;;;;1.90;1.13;;;11.30;99.90;;;;;;5073941;28;20029;-72
2023/05/06 02:08:52;;;;;;;1.40;0.82;;;11.20;99.90;;;;;;5072664;28;20036;-72
2023/05/06 02:11:17;;;;;;;1.60;0.80;;;11.20;99.90;;;;;;5073978;28;20128;-72
2023/05/06 02:13:44;;;;;;;1.40;0.80;;;11.20;99.90;;;;;;5073604;28;20453;-72
2023/05/06 02:16:09;;;;;;;3.00;1.20;;;11.20;99.90;;;;;;5073728;28;20039;-72
2023/05/06 02:18:35;;;;;;;6.35;3.70;;;11.00;99.90;;;;;;5073732;28;20024;-72
2023/05/06 02:21:02;;;;;;;12.35;7.15;;;11.00;99.90;;;;;;5073631;28;20031;-72
2023/05/06 02:23:28;;;;;;;12.63;7.07;;;10.80;99.90;;;;;;5073429;28;20107;-72
2023/05/06 02:25:53;;;;;;;7.63;5.63;;;10.80;99.90;;;;;;5073648;28;20048;-72
2023/05/06 02:28:19;;;;;;;7.05;5.07;;;10.70;99.90;;;;;;5073712;28;20496;-72
2023/05/06 02:30:45;;;;;;;5.65;4.43;;;10.60;99.90;;;;;;5073817;28;20086;-72
2023/05/06 02:33:10;;;;;;;5.43;3.70;;;10.60;99.90;;;;;;5073641;28;20035;-73
2023/05/06 02:35:36;;;;;;;4.72;2.75;;;10.60;99.90;;;;;;5073020;28;20020;-72
2023/05/06 02:38:03;;;;;;;3.08;2.20;;;10.70;99.90;;;;;;5073212;28;20021;-72
2023/05/06 02:40:29;;;;;;;2.72;1.67;;;10.70;99.90;;;;;;5072528;28;20086;-72
2023/05/06 02:42:54;;;;;;;2.03;1.20;;;10.70;99.90;;;;;;5073637;28;20032;-72
2023/05/06 02:45:20;;;;;;;2.38;1.10;;;10.70;99.90;;;;;;5073485;28;20027;-72
2023/05/06 02:47:46;;;;;;;2.05;0.90;;;10.70;99.90;;;;;;5073414;28;20468;-73
2023/05/06 02:50:11;;;;;;;2.60;0.80;;;10.60;99.90;;;;;;5073073;28;20028;-73
2023/05/06 02:52:37;;;;;;;1.13;0.70;;;10.50;99.90;;;;;;5072977;28;20033;-72
2023/05/06 02:55:04;;;;;;;2.35;0.73;;;10.40;99.90;;;;;;5073524;28;20465;-73
2023/05/06 02:57:29;;;;;;;1.48;0.80;;;10.30;99.90;;;;;;5073284;28;20032;-73
2023/05/06 02:59:55;;;;;;;0.70;0.52;;;10.40;99.90;;;;;;5073256;28;20036;-72
2023/05/06 03:02:20;;;;;;;1.08;0.70;;;10.40;99.90;;;;;;5073518;28;20048;-72
2023/05/06 03:04:46;;;;;;;1.40;0.80;;;10.40;99.90;;;;;;5073463;28;20385;-72
2023/05/06 03:07:12;;;;;;;1.27;0.73;;;10.40;99.90;;;;;;5072888;22;20137;-84
2023/05/06 03:09:38;;;;;;;1.98;0.60;;;10.30;99.90;;;;;;5043359;28;20075;-85
2023/05/06 03:12:05;;;;;;;1.15;0.63;;;10.30;99.90;;;;;;5041256;28;20508;-85
2023/05/06 03:14:30;;;;;;;0.95;0.52;;;10.30;99.90;;;;;;5051785;28;20504;-85
2023/05/06 03:16:56;;;;;;;1.23;0.75;;;10.20;99.90;;;;;;5058431;28;20029;-85
2023/05/06 03:19:22;;;;;;;1.42;0.82;;;10.20;99.90;;;;;;5050312;28;20491;-85
2023/05/06 03:21:48;;;;;;;1.25;0.80;;;10.10;99.90;;;;;;5052957;28;20078;-85
2023/05/06 03:24:13;;;;;;;1.77;1.00;;;10.20;99.90;;;;;;5038898;28;20443;-85
2023/05/06 03:26:39;;;;;;;0.90;0.60;;;10.20;99.90;;;;;;5036300;28;20067;-85
2023/05/06 03:29:05;;;;;;;1.20;0.80;;;10.20;99.90;;;;;;5045838;28;20036;-85
2023/05/06 03:31:30;;;;;;;1.50;0.90;;;10.20;99.90;;;;;;5056744;28;20029;-85
2023/05/06 03:33:56;;;;;;;1.60;1.05;;;10.20;99.90;;;;;;5044319;28;20029;-85
2023/05/06 03:36:26;;;;;;;1.30;0.90;;;10.30;99.90;;;;;;5037022;28;20060;-85
2023/05/06 03:38:52;;;;;;;1.30;0.98;;;10.20;99.90;;;;;;5075063;28;20035;-85
2023/05/06 03:41:18;;;;;;;1.50;1.00;;;10.10;99.90;;;;;;5058584;28;20024;-85
2023/05/06 03:43:44;;;;;;;1.02;0.73;;;10.10;99.90;;;;;;5058345;28;20028;-85
2023/05/06 03:46:10;;;;;;;1.25;0.80;;;10.20;99.90;;;;;;5058295;28;20024;-85
2023/05/06 03:48:35;;;;;;;1.30;0.90;;;10.10;99.90;;;;;;5048703;28;20032;-85
2023/05/06 03:51:02;;;;;;;1.55;0.90;;;10.00;99.90;;;;;;5038412;28;20036;-85
2023/05/06 03:53:27;;;;;;;2.80;1.00;;;9.90;99.90;;;;;;5054903;28;20052;-85
2023/05/06 03:55:53;;;;;;;2.20;1.30;;;9.80;99.90;;;;;;5055088;28;20078;-85
2023/05/06 03:58:19;;;;;;;2.63;1.30;;;9.70;99.90;;;;;;5038351;28;20021;-85
2023/05/06 04:00:45;;;;;;;2.47;1.38;;;9.70;99.90;;;;;;5038270;28;20028;-85
2023/05/06 04:03:10;;;;;;;2.20;1.40;;;9.60;99.90;;;;;;5039906;28;20555;-85
2023/05/06 04:05:36;;;;;;;2.63;1.42;;;9.60;99.90;;;;;;5076680;28;20036;-85
2023/05/06 04:08:02;;;;;;;2.35;1.20;;;9.60;99.90;;;;;;5042383;28;20036;-85
2023/05/06 04:10:28;;;;;;;2.90;1.50;;;9.50;99.90;;;;;;5075379;28;20082;-85
2023/05/06 04:12:53;;;;;;;2.38;1.40;;;9.60;99.90;;;;;;5042408;28;20033;-85
2023/05/06 04:15:19;;;;;;;1.73;1.13;;;9.60;99.90;;;;;;5075292;28;20116;-85
2023/05/06 04:17:45;;;;;;;1.73;1.10;;;9.60;99.90;;;;;;5074383;28;20031;-85
2023/05/06 04:20:13;;;;;;;1.23;0.82;;;9.70;99.90;;;;;;5058008;28;20032;-85
2023/05/06 04:22:38;;;;;;;2.50;1.00;;;9.70;99.90;;;;;;5041700;28;20090;-85
2023/05/06 04:25:05;;;;;;;1.60;0.90;;;9.70;99.90;;;;;;5024972;28;20492;-85
2023/05/06 04:27:31;;;;;;;1.40;0.90;;;9.70;99.90;;;;;;5041415;28;20540;-85
2023/05/06 04:29:57;;;;;;;1.90;1.00;;;9.80;99.90;;;;;;5075865;28;20029;-85
2023/05/06 04:32:24;;;;;;;1.90;1.20;;;9.80;99.90;;;;;;5056907;28;20028;-85
2023/05/06 04:34:50;;;;;;;1.98;1.23;;;9.80;99.90;;;;;;5057851;28;20031;-85
2023/05/06 04:37:18;;;;;;;1.77;1.20;;;9.80;99.90;;;;;;5067206;28;20035;-85
2023/05/06 04:39:45;;;;;;;1.58;1.17;;;9.90;99.90;;;;;;5061236;28;20024;-85
2023/05/06 04:42:11;;;;;;;2.15;1.20;;;9.90;99.90;;;;;;5045104;28;20119;-85
2023/05/06 04:44:37;;;;;;;2.40;1.20;;;9.90;99.90;;;;;;5061478;28;20028;-85
2023/05/06 04:47:03;;;;;;;1.88;1.20;;;9.90;99.90;;;;;;5041027;28;20032;-85
2023/05/06 04:49:28;;;;;;;3.35;1.30;;;9.90;99.90;;;;;;5040989;28;20025;-85
2023/05/06 04:51:54;;;;;;;2.67;1.60;;;9.80;99.90;;;;;;5041080;28;20028;-85
2023/05/06 04:54:20;;;;;;;5.32;3.17;;;9.80;99.90;;;;;;5040861;28;20028;-85
2023/05/06 04:56:45;;;;;;;5.60;3.33;;;9.80;99.90;;;;;;5040865;28;20024;-85
2023/05/06 04:59:11;;;;;;;6.22;3.50;;;9.70;99.90;;;;;;5041427;28;20415;-83
2023/05/06 05:01:36;;;;;;;6.53;3.25;;;9.70;99.90;;;;;;5075486;28;20036;-83
2023/05/06 05:04:02;;;;;;;4.60;2.83;;;9.80;99.90;;;;;;5058409;28;20032;-82
2023/05/06 05:06:28;;;;;;;4.70;2.70;;;9.90;99.90;;;;;;5061015;28;20047;-82
2023/05/06 05:08:54;;;;;;;3.92;2.13;;;10.00;99.90;;;;;;5047367;28;20033;-82
2023/05/06 05:11:19;;;;;;;2.35;1.35;;;10.00;99.90;;;;;;5060365;28;20087;-82
2023/05/06 05:13:45;;;;;;;2.10;1.45;;;10.10;99.90;;;;;;5064281;28;20050;-82
2023/05/06 05:16:11;;;;;;;1.65;1.05;;;10.10;99.90;;;;;;5043348;28;20021;-82
2023/05/06 05:18:36;;;;;;;2.15;1.20;;;10.20;99.90;;;;;;5060076;28;20029;-82
2023/05/06 05:21:02;;;;;;;2.10;1.35;;;10.20;99.90;;;;;;5043021;28;20036;-82
2023/05/06 05:23:28;;;;;;;2.40;1.40;;;10.20;99.90;;;;;;5060434;28;20032;-82
2023/05/06 05:25:54;;;;;;;2.40;1.60;;;10.20;99.90;;;;;;5043729;28;20037;-82
2023/05/06 05:28:19;;;;;;;2.05;1.38;;;10.20;99.90;;;;;;5045760;28;20033;-82
2023/05/06 05:30:45;;;;;;;2.20;1.38;;;10.20;99.90;;;;;;5047178;28;20029;-82
2023/05/06 05:33:10;;;;;;;1.88;1.40;;;10.30;99.90;;;;;;5069017;28;20043;-82
2023/05/06 05:35:36;;;;;;;1.38;1.02;;;10.30;99.90;;;;;;5061924;28;20469;-81
2023/05/06 05:38:02;;;;;;;1.70;1.05;;;10.30;99.90;;;;;;5076860;28;20032;-82
2023/05/06 05:40:27;;;;;;;1.58;1.10;;;10.40;99.90;;;;;;5064121;28;20384;-82
2023/05/06 05:42:54;;;;;;;1.85;1.15;;;10.40;99.90;;;;;;5079827;28;20480;-81
2023/05/06 05:45:20;;;;;;;2.63;1.70;;;10.50;99.90;;;;;;5072500;28;20075;-83
2023/05/06 05:47:46;;;;;;;2.97;1.90;;;10.60;99.90;;;;;;5056368;28;20033;-82
2023/05/06 05:50:11;;;;;;;3.30;2.20;;;10.70;99.90;;;;;;5040035;28;20098;-82
2023/05/06 05:52:37;;;;;;;3.85;2.92;;;10.70;99.90;;;;;;5057986;28;20029;-82
2023/05/06 05:55:03;;;;;;;3.75;2.55;;;10.80;99.90;;;;;;5026068;28;20037;-82
2023/05/06 05:57:28;;;;;;;3.92;2.25;;;10.90;99.90;;;;;;5030425;28;20024;-82
2023/05/06 05:59:54;;;;;;;3.17;2.25;;;11.00;99.90;;;;;;5043076;28;20032;-82
2023/05/06 06:02:20;;;;;;;4.68;2.28;;;11.20;99.90;;;;;;5071177;28;20025;-83
2023/05/06 06:04:45;;;;;;;3.17;2.35;;;11.30;99.90;;;;;;5058166;28;20029;-82
2023/05/06 06:07:12;;;;;;;3.80;1.85;;;11.40;99.90;;;;;;5042922;28;20047;-82
2023/05/06 06:09:38;;;;;;;2.40;1.77;;;11.40;99.90;;;;;;5043834;28;20048;-82
2023/05/06 06:12:04;;;;;;;2.35;1.60;;;11.60;99.90;;;;;;5055201;28;20044;-82
2023/05/06 06:14:29;;;;;;;3.42;2.00;;;11.60;99.90;;;;;;5082816;28;20037;-82
2023/05/06 06:16:55;;;;;;;2.38;1.73;;;11.70;99.90;;;;;;5061381;28;20119;-82
2023/05/06 06:19:21;;;;;;;2.78;1.65;;;11.70;99.90;;;;;;5071715;28;20035;-83
2023/05/06 06:21:46;;;;;;;2.90;1.55;;;11.70;99.90;;;;;;5049204;28;20426;-82
2023/05/06 06:24:12;;;;;;;2.10;1.48;;;11.80;99.90;;;;;;5049170;28;20044;-82
2023/05/06 06:26:38;;;;;;;3.40;1.50;;;11.80;99.90;;;;;;5065585;28;20037;-82
2023/05/06 06:29:03;;;;;;;2.22;1.60;;;11.80;99.90;;;;;;5059744;28;20028;-82
2023/05/06 06:31:29;;;;;;;6.22;2.45;;;11.80;99.90;;;;;;5079885;28;20025;-82
2023/05/06 06:33:55;;;;;;;5.70;3.58;;;11.90;99.90;;;;;;5062718;28;20046;-81
2023/05/06 06:36:20;;;;;;;5.45;3.45;;;12.00;99.90;;;;;;5079939;28;20024;-81
2023/05/06 06:38:46;;;;;;;4.95;2.90;;;12.10;99.90;;;;;;5069681;28;20086;-81
2023/05/06 06:41:12;;;;;;;4.00;2.72;;;12.10;99.90;;;;;;5067682;28;20032;-81
2023/05/06 06:43:37;;;;;;;6.43;3.58;;;12.20;99.90;;;;;;5069395;28;20096;-82
2023/05/06 06:46:03;;;;;;;4.95;3.60;;;12.20;99.90;;;;;;5074289;28;20096;-82
2023/05/06 06:48:29;;;;;;;3.90;2.97;;;12.10;99.90;;;;;;5061065;28;20029;-82
2023/05/06 06:50:55;;;;;;;5.18;3.45;;;12.30;99.90;;;;;;5044151;28;20023;-82
2023/05/06 06:53:20;;;;;;;4.20;2.92;;;12.30;99.90;;;;;;5033656;28;20025;-82
2023/05/06 06:55:46;;;;;;;4.40;2.75;;;12.50;99.90;;;;;;5065877;28;20079;-82
2023/05/06 06:58:12;;;;;;;4.18;2.80;;;12.60;99.90;;;;;;5031644;28;20060;-82
2023/05/06 07:00:38;;;;;;;3.33;2.42;;;12.70;99.90;;;;;;5057459;28;20029;-82
2023/05/06 07:03:03;;;;;;;3.05;2.30;;;12.80;99.90;;;;;;5067739;28;20029;-83
2023/05/06 07:05:29;;;;;;;4.13;2.38;;;13.00;99.90;;;;;;5064209;28;20546;-82
2023/05/06 07:07:55;;;;;;;3.38;2.60;;;13.20;99.90;;;;;;5062534;28;20558;-82
2023/05/06 07:10:21;;;;;;;3.70;2.67;;;13.40;99.90;;;;;;5022188;28;20392;-82
2023/05/06 07:12:46;;;;;;;2.75;1.83;;;13.40;99.90;;;;;;5038814;28;20408;-82
2023/05/06 07:15:12;;;;;;;3.17;2.13;;;13.50;99.90;;;;;;5055471;28;20116;-82
2023/05/06 07:17:38;;;;;;;2.80;1.90;;;13.60;99.90;;;;;;5038836;28;20036;-82
2023/05/06 07:20:04;;;;;;;2.53;1.80;;;13.60;99.90;;;;;;5039107;28;20029;-83
2023/05/06 07:22:29;;;;;;;2.70;1.67;;;13.60;99.90;;;;;;5055403;28;20029;-82
2023/05/06 07:24:55;;;;;;;4.43;1.90;;;13.70;99.90;;;;;;5050551;28;20128;-82
2023/05/06 07:27:21;;;;;;;2.85;1.80;;;13.70;99.90;;;;;;5057624;28;20484;-82
2023/05/06 07:29:46;;;;;;;2.55;1.67;;;13.80;99.90;;;;;;5025383;28;20051;-82
2023/05/06 07:32:12;;;;;;;2.90;1.80;;;13.80;99.90;;;;;;5042332;28;20476;-83
2023/05/06 07:34:38;;;;;;;2.85;1.48;;;13.90;99.90;;;;;;5041771;28;20024;-83
2023/05/06 07:37:03;;;;;;;2.65;1.73;;;13.90;99.90;;;;;;5058166;28;20050;-82
2023/05/06 07:39:30;;;;;;;2.25;1.30;;;14.00;99.90;;;;;;5061177;28;20029;-82
2023/05/06 07:41:55;;;;;;;2.30;1.30;;;14.10;99.90;;;;;;5061892;28;20025;-82
2023/05/06 07:44:21;;;;;;;2.20;1.20;;;14.10;99.90;;;;;;5045459;28;20043;-82
2023/05/06 07:46:47;;;;;;;2.63;1.55;;;14.20;99.90;;;;;;5079625;28;20028;-82
2023/05/06 07:49:13;;;;;;;1.98;1.20;;;14.30;99.90;;;;;;5061931;28;20484;-82
2023/05/06 07:51:40;;;;;;;3.03;1.50;;;14.40;99.90;;;;;;5045380;28;20035;-82
2023/05/06 07:54:06;;;;;;;1.95;1.30;;;14.40;99.90;;;;;;5079031;28;20112;-82
2023/05/06 07:56:32;;;;;;;1.80;1.10;;;14.40;99.90;;;;;;5080215;28;20094;-82
2023/05/06 07:58:58;;;;;;;2.05;1.13;;;14.40;99.90;;;;;;5045288;28;20021;-81
2023/05/06 08:01:24;;;;;;;1.85;1.10;;;14.50;99.90;;;;;;5066247;28;20053;-82
2023/05/06 08:03:50;;;;;;;2.38;1.23;;;14.60;99.90;;;;;;5051084;28;20056;-82
2023/05/06 08:06:16;;;;;;;2.42;1.40;;;14.60;99.90;;;;;;5063029;28;20132;-82
2023/05/06 08:08:41;;;;;;;2.42;0.98;;;14.70;99.90;;;;;;5067631;28;20055;-82
2023/05/06 08:11:07;;;;;;;2.30;1.30;;;14.60;99.90;;;;;;5048258;28;20033;-82
2023/05/06 08:13:33;;;;;;;2.78;1.40;;;14.60;99.90;;;;;;5050974;28;20033;-83
2023/05/06 08:15:59;;;;;;;2.17;1.60;;;14.70;99.90;;;;;;5071051;28;20029;-81
2023/05/06 08:18:25;;;;;;;1.77;1.30;;;14.70;99.90;;;;;;5047051;28;20763;-82
2023/05/06 08:20:50;;;;;;;2.53;1.48;;;14.70;99.90;;;;;;5065877;28;20025;-82
2023/05/06 08:23:16;;;;;;;2.47;1.15;;;14.80;99.90;;;;;;5051642;28;20481;-82
2023/05/06 08:25:42;;;;;;;1.90;1.20;;;15.00;99.90;;;;;;5060713;28;20068;-83
2023/05/06 08:28:07;;;;;;;3.65;1.30;;;15.00;99.90;;;;;;5077248;28;20124;-82
2023/05/06 08:30:33;;;;;;;2.42;1.35;;;15.10;99.90;;;;;;5060306;28;20072;-81
2023/05/06 08:32:59;;;;;;;2.80;1.40;;;15.30;99.90;;;;;;5045572;28;20033;-81
2023/05/06 08:35:24;;;;;;;2.55;1.30;;;15.50;99.90;;;;;;5046883;28;20961;-82
2023/05/06 08:37:50;;;;;;;2.08;1.40;;;15.60;99.90;;;;;;5053641;28;20025;-80
2023/05/06 08:40:22;;;;;;;2.63;1.25;;;15.70;99.90;;;;;;5041678;28;20064;-82
2023/05/06 08:42:49;;;;;;;3.00;1.10;;;15.80;99.90;;;;;;5057405;28;20029;-82
2023/05/06 08:45:18;;;;;;;1.73;1.00;;;16.00;99.90;;;;;;5065715;28;20048;-82
2023/05/06 08:47:45;;;;;;;1.52;0.93;;;16.10;99.90;;;;;;5062484;28;20060;-82
2023/05/06 08:50:11;;;;;;;1.88;1.20;;;16.20;99.90;;;;;;5058666;28;20035;-82
2023/05/06 08:52:38;;;;;;;2.03;1.17;;;16.30;99.90;;;;;;5058747;28;20032;-82
2023/05/06 08:55:04;;;;;;;1.50;1.10;;;16.30;99.90;;;;;;5075805;28;20062;-82
2023/05/06 08:57:31;;;;;;;2.72;1.20;;;16.30;99.90;;;;;;5059233;28;20023;-82
2023/05/06 08:59:57;;;;;;;1.83;1.15;;;16.40;99.90;;;;;;5059491;28;20020;-81
2023/05/06 09:02:24;;;;;;;2.25;1.30;;;16.50;99.90;;;;;;5059453;28;20533;-82
2023/05/06 09:04:51;;;;;;;2.08;1.27;;;16.70;99.90;;;;;;5075021;28;20159;-82
2023/05/06 09:07:20;;;;;;;3.63;1.20;;;16.80;99.90;;;;;;5068111;28;20033;-82
2023/05/06 09:09:46;;;;;;;2.10;1.48;;;17.00;99.90;;;;;;5060061;28;20017;-81
2023/05/06 09:12:13;;;;;;;1.88;1.17;;;17.10;99.90;;;;;;5065439;28;20040;-81
2023/05/06 09:14:40;;;;;;;4.75;1.70;;;17.20;99.90;;;;;;5046357;28;20024;-81
2023/05/06 09:17:22;;;;;;;2.25;1.40;;;17.40;99.90;;;;;;5066179;28;20020;-81
2023/05/06 09:19:50;;;;;;;4.18;1.55;;;17.50;99.90;;;;;;5071869;28;20021;-81
2023/05/06 09:22:15;;;;;;;2.28;1.20;;;17.50;99.90;;;;;;5049327;28;20070;-81
2023/05/06 09:24:41;;;;;;;2.10;1.40;;;17.60;99.90;;;;;;5067539;28;20024;-81
2023/05/06 09:27:07;;;;;;;2.88;1.50;;;17.70;99.90;;;;;;5061953;28;20048;-81
2023/05/06 09:29:32;;;;;;;2.00;1.25;;;17.80;99.90;;;;;;5062647;28;20089;-81
2023/05/06 09:32:06;;;;;;;2.45;1.40;;;17.80;99.90;;;;;;5046102;28;20032;-81
2023/05/06 09:34:32;;;;;;;3.08;1.50;;;17.90;99.90;;;;;;5057556;28;20033;-81
2023/05/06 09:36:58;;;;;;;2.33;1.40;;;18.00;99.90;;;;;;5028275;28;20504;-81
2023/05/06 09:39:26;;;;;;;3.08;1.50;;;18.20;99.90;;;;;;5055191;28;20071;-81
2023/05/06 09:41:53;;;;;;;3.08;1.27;;;18.30;99.90;;;;;;5038589;28;20389;-81
2023/05/06 09:44:21;;;;;;;2.28;1.20;;;18.20;99.90;;;;;;5056133;28;20029;-81
2023/05/06 09:46:47;;;;;;;3.97;1.30;;;18.40;99.90;;;;;;5038300;28;20083;-81
2023/05/06 09:49:14;;;;;;;3.85;1.52;;;18.60;99.90;;;;;;5054855;28;20037;-81
2023/05/06 09:51:46;;;;;;;2.72;1.75;;;18.90;99.90;;;;;;5054615;28;20037;-81
2023/05/06 09:54:14;;;;;;;2.25;1.58;;;19.00;99.90;;;;;;5037926;28;20029;-81
2023/05/06 09:56:41;;;;;;;2.92;1.35;;;19.20;99.90;;;;;;5054530;28;20021;-81
2023/05/06 09:59:09;;;;;;;2.15;1.40;;;19.30;99.90;;;;;;5038642;28;20056;-80
2023/05/06 10:01:36;;;;;;;1.95;1.33;;;19.40;99.90;;;;;;5057716;28;20024;-81
2023/05/06 10:04:08;;;;;;;3.67;1.50;;;19.50;99.90;;;;;;5074776;28;20036;-81
2023/05/06 10:06:35;;;;;;;1.92;1.15;;;19.40;99.90;;;;;;5074381;28;20046;-81
2023/05/06 10:09:01;;;;;;;2.20;1.50;;;19.30;99.90;;;;;;5075199;28;20078;-81
2023/05/06 10:11:30;;;;;;;2.50;1.35;;;19.30;99.90;;;;;;5074037;28;20484;-81
2023/05/06 10:13:56;;;;;;;2.33;1.10;;;19.20;99.90;;;;;;5065327;28;20028;-81
2023/05/06 10:16:22;;;;;;;1.85;0.95;;;19.10;99.90;;;;;;5064864;28;20040;-81
2023/05/06 10:18:50;;;;;;;1.67;0.95;;;19.00;99.90;;;;;;5061664;28;20025;-81
2023/05/06 10:21:20;;;;;;;1.58;0.90;;;18.80;99.90;;;;;;5061579;28;20443;-81
2023/05/06 10:23:59;;;;;;;1.80;1.20;;;18.70;99.90;;;;;;5067867;28;20056;-81
2023/05/06 10:26:28;;;;;;;1.50;0.90;;;18.50;99.90;;;;;;5063371;28;20044;-81
2023/05/06 10:28:54;;;;;;;3.08;1.02;;;18.40;99.90;;;;;;5067808;28;20035;-81
2023/05/06 10:31:20;;;;;;;1.45;1.00;;;18.40;99.90;;;;;;5049163;28;20036;-81
2023/05/06 10:33:48;;;;;;;3.80;1.10;;;18.40;99.90;;;;;;5059409;28;20501;-81
2023/05/06 10:36:21;;;;;;;1.20;0.80;;;18.30;99.90;;;;;;5059022;28;20091;-80
2023/05/06 10:38:59;;;;;;;1.52;0.90;;;18.30;99.90;;;;;;5061248;28;20051;-80
2023/05/06 10:41:27;;;;;;;2.90;0.82;;;18.30;99.90;;;;;;5059299;28;20162;-81
2023/05/06 10:43:58;;;;;;;2.17;1.00;;;18.20;99.90;;;;;;5067510;28;20110;-81
2023/05/06 10:46:27;;;;;;;2.03;0.88;;;18.10;99.90;;;;;;5066797;28;20401;-81
2023/05/06 10:49:09;;;;;;;1.60;0.90;;;18.10;99.90;;;;;;5038645;28;20366;-80
2023/05/06 10:51:36;;;;;;;2.08;0.85;;;18.10;99.90;;;;;;5065796;28;20028;-81
2023/05/06 10:54:18;;;;;;;3.05;0.90;;;18.10;99.90;;;;;;5056363;28;20025;-80
2023/05/06 10:56:52;;;;;;;13.45;8.88;;;18.10;99.90;;;;;;5059082;28;20028;-80
2023/05/06 10:59:23;;;;;;;16.60;10.10;;;18.00;99.90;;;;;;5065852;28;20025;-80
2023/05/06 11:02:09;;;;;;;7.63;5.78;;;17.80;99.90;;;;;;5040504;28;20052;-80
2023/05/06 11:04:36;;;;;;;11.38;8.38;;;17.50;99.90;;;;;;5034685;28;20035;-79
2023/05/06 11:07:20;;;;;;;6.43;4.60;;;17.40;99.90;;;;;;5046494;28;20037;-81
2023/05/06 11:10:00;;;;;;;2.60;1.65;;;17.30;99.90;;;;;;5038663;28;20028;-80
2023/05/06 11:12:50;;;;;;;4.13;2.70;;;17.30;99.90;;;;;;5071668;28;20039;-81
2023/05/06 11:15:39;;;;;;;5.25;1.45;;;17.30;99.90;;;;;;5031648;28;20025;-80
2023/05/06 11:18:23;;;;;;;1.98;1.30;;;17.20;99.90;;;;;;5042065;28;20088;-80
2023/05/06 11:21:03;;;;;;;9.18;2.95;;;17.20;99.90;;;;;;5069022;28;20388;-80
2023/05/06 11:23:41;;;;;;;8.23;3.80;;;17.10;99.90;;;;;;5069280;28;20104;-80
2023/05/06 11:26:10;;;;;;;4.05;2.47;;;17.10;99.90;;;;;;5065279;28;20029;-80
2023/05/06 11:28:37;;;;;;;3.58;2.42;;;17.00;99.90;;;;;;5076828;28;20149;-80
2023/05/06 11:31:03;;;;;;;11.50;8.30;;;17.00;99.90;;;;;;5062412;28;20040;-80
2023/05/06 11:33:33;;;;;;;11.45;7.15;;;16.90;99.90;;;;;;5077922;28;20391;-80
2023/05/06 11:35:59;;;;;;;8.73;5.88;;;16.90;99.90;;;;;;5056184;28;20049;-80
2023/05/06 11:38:26;;;;;;;6.93;3.95;;;17.10;99.90;;;;;;5056239;28;20035;-80
2023/05/06 11:40:51;;;;;;;4.07;1.63;;;17.30;99.90;;;;;;5069614;28;20029;-80
2023/05/06 11:43:17;;;;;;;3.97;1.35;;;17.50;99.90;;;;;;5060792;28;20040;-80
2023/05/06 11:45:47;;;;;;;1.48;1.00;;;17.80;99.90;;;;;;5060152;28;20059;-80
2023/05/06 11:48:17;;;;;;;6.13;1.60;;;18.20;99.90;;;;;;5078562;28;20029;-80
2023/05/06 11:50:47;;;;;;;2.00;1.20;;;18.60;99.90;;;;;;5060547;28;20028;-80
2023/05/06 11:53:15;;;;;;;2.87;1.30;;;18.80;99.90;;;;;;5054141;28;20033;-80
2023/05/06 11:55:41;;;;;;;4.22;1.45;;;19.00;99.90;;;;;;5072772;28;20267;-80
2023/05/06 11:58:13;;;;;;;2.83;1.27;;;19.20;99.90;;;;;;5076268;28;20027;-80
2023/05/06 12:00:51;;;;;;;2.30;1.10;;;19.20;99.90;;;;;;5065823;28;20032;-80
2023/05/06 12:03:18;;;;;;;2.95;1.20;;;19.20;99.90;;;;;;5059301;28;20036;-80
2023/05/06 12:05:44;;;;;;;2.63;1.10;;;19.20;99.90;;;;;;5042805;28;20044;-80
2023/05/06 12:08:11;;;;;;;2.63;1.50;;;19.00;99.90;;;;;;5059135;28;20044;-80
2023/05/06 12:10:38;;;;;;;2.42;1.40;;;18.80;99.90;;;;;;5061058;28;20055;-80
2023/05/06 12:13:05;;;;;;;2.55;1.15;;;18.80;99.90;;;;;;5060858;28;20090;-80
2023/05/06 12:15:34;;;;;;;2.38;1.10;;;18.90;99.90;;;;;;5078894;28;20024;-80
2023/05/06 12:18:00;;;;;;;2.80;1.00;;;19.00;99.90;;;;;;5060583;28;20036;-80
2023/05/06 12:20:27;;;;;;;2.28;1.10;;;19.10;99.90;;;;;;5060502;28;20044;-80
2023/05/06 12:23:12;;;;;;;5.32;0.90;;;19.30;99.90;;;;;;5060456;28;20107;-80
2023/05/06 12:25:38;;;;;;;2.97;1.60;;;19.40;99.90;;;;;;5081045;28;20100;-81
2023/05/06 12:28:17;;;;;;;3.78;1.33;;;19.40;99.90;;;;;;5046927;28;20081;-80
2023/05/06 12:30:43;;;;;;;1.55;0.85;;;19.60;99.90;;;;;;5047940;28;20095;-80
2023/05/06 12:33:10;;;;;;;2.90;1.10;;;19.80;99.90;;;;;;5063107;28;20033;-80
2023/05/06 12:35:36;;;;;;;1.10;0.85;;;20.00;99.90;;;;;;5062701;28;20037;-80
2023/05/06 12:38:08;;;;;;;1.88;1.00;;;20.10;99.90;;;;;;5070741;28;20066;-80
2023/05/06 12:40:35;;;;;;;2.90;0.90;;;20.30;99.90;;;;;;5077231;28;20032;-78
2023/05/06 12:43:00;;;;;;;1.65;0.80;;;20.50;99.90;;;;;;5064909;28;20301;-79
2023/05/06 12:45:26;;;;;;;2.50;0.90;;;20.70;99.90;;;;;;5071281;28;20112;-79
2023/05/06 12:48:04;;;;;;;1.60;0.80;;;20.90;99.90;;;;;;5072941;28;20142;-79
2023/05/06 12:50:37;;;;;;;2.20;1.00;;;21.10;99.90;;;;;;5078419;28;20024;-80